Time;durP1;ratioP1;P1;durP2;ratioP2;P2;SDS_P1;SDS_P2;PMS_P1;PMS_P2;Temp;Humidity;BMP_temperature;BMP_pressure;BME280_temperature;BME280_humidity;BME280_pressure;Samples;Min_cycle;Max_cycle;Signal;HPM_P1;HPM_P2
2023/02/21 02:15:15;;;;;;;7.97;4.28;;;4.50;99.90;;;3.26;100.00;97758.81;5031400;28;20471;-76
2023/02/21 02:18:00;;;;;;;9.38;4.25;;;4.50;99.90;;;3.25;100.00;97759.00;5031317;28;20938;-76
2023/02/21 02:21:00;;;;;;;7.93;4.05;;;4.50;99.90;;;3.21;100.00;97765.66;5031208;28;20479;-76
2023/02/21 02:24:14;;;;;;;6.97;3.78;;;4.40;99.90;;;3.14;100.00;97762.22;5030868;28;20467;-76
2023/02/21 02:27:26;;;;;;;6.28;3.75;;;4.30;99.90;;;3.09;100.00;97754.91;5028045;28;20546;-76
2023/02/21 02:31:13;;;;;;;9.50;4.65;;;4.30;99.90;;;2.99;100.00;97747.47;5046298;28;20850;-76
2023/02/21 02:34:29;;;;;;;7.63;3.70;;;4.20;99.90;;;2.94;100.00;97746.41;4930821;29;20755;-76
2023/02/21 02:37:04;;;;;;;5.30;3.67;;;4.10;99.90;;;2.95;100.00;97746.22;5030186;28;21463;-76
2023/02/21 02:39:38;;;;;;;7.77;3.70;;;4.20;99.90;;;2.95;100.00;97753.25;5030797;28;20434;-76
2023/02/21 02:42:14;;;;;;;7.00;3.97;;;4.20;99.90;;;2.99;100.00;97742.22;5030424;28;20497;-76
2023/02/21 02:44:44;;;;;;;6.68;3.85;;;4.20;99.90;;;2.96;100.00;97737.38;5030778;28;20410;-76
2023/02/21 02:47:19;;;;;;;8.07;4.30;;;4.20;99.90;;;2.95;100.00;97738.38;5030600;28;20452;-76
2023/02/21 02:49:49;;;;;;;9.73;4.57;;;4.20;99.90;;;2.97;100.00;97725.09;5030614;28;20443;-76
2023/02/21 02:52:15;;;;;;;4.88;3.42;;;4.10;99.90;;;2.88;100.00;97737.53;5030326;28;20440;-76
2023/02/21 02:54:41;;;;;;;9.02;4.03;;;4.10;99.90;;;2.86;100.00;97729.06;5030582;28;20403;-76
2023/02/21 02:57:11;;;;;;;6.75;4.00;;;4.10;99.90;;;2.86;100.00;97736.09;5030315;28;20769;-76
2023/02/21 02:59:42;;;;;;;6.22;3.90;;;4.10;99.90;;;2.86;100.00;97730.88;5030484;28;20411;-76
2023/02/21 03:02:35;;;;;;;7.75;4.07;;;4.10;99.90;;;2.87;100.00;97733.31;5030210;28;20439;-76
2023/02/21 03:05:30;;;;;;;5.57;3.78;;;4.10;99.90;;;2.83;100.00;97737.31;5030417;28;20448;-76
2023/02/21 03:08:04;;;;;;;6.35;3.78;;;4.00;99.90;;;2.76;100.00;97743.50;5030426;28;20907;-76
2023/02/21 03:10:42;;;;;;;7.50;4.00;;;4.00;99.90;;;2.70;100.00;97745.09;5030392;28;20475;-76
2023/02/21 03:13:17;;;;;;;7.65;3.53;;;4.00;99.90;;;2.73;100.00;97736.84;5029836;28;20953;-76
2023/02/21 03:15:49;;;;;;;7.85;3.83;;;3.90;99.90;;;2.68;100.00;97740.03;5030313;28;20471;-76
2023/02/21 03:18:24;;;;;;;6.68;3.20;;;3.80;99.90;;;2.62;100.00;97737.41;5030285;28;20517;-76
2023/02/21 03:20:56;;;;;;;8.23;3.90;;;3.80;99.90;;;2.59;100.00;97737.78;5030353;28;20956;-76
2023/02/21 03:23:25;;;;;;;7.97;3.95;;;3.80;99.90;;;2.60;100.00;97727.13;5029891;28;20504;-76
2023/02/21 03:25:55;;;;;;;7.03;3.60;;;3.80;99.90;;;2.61;100.00;97727.94;5030150;28;20962;-76
2023/02/21 03:28:22;;;;;;;5.78;3.50;;;3.80;99.90;;;2.62;100.00;97726.94;5030163;28;20407;-76
2023/02/21 03:30:54;;;;;;;6.80;3.40;;;3.80;99.90;;;2.63;100.00;97731.19;5030149;28;20402;-76
2023/02/21 03:33:21;;;;;;;7.22;3.70;;;3.90;99.90;;;2.64;100.00;97730.97;5029886;28;20475;-76
2023/02/21 03:35:47;;;;;;;5.82;3.45;;;3.90;99.90;;;2.66;100.00;97731.59;5030210;28;20395;-76
2023/02/21 03:38:14;;;;;;;10.13;3.90;;;3.90;99.90;;;2.69;100.00;97728.59;5030167;28;20876;-76
2023/02/21 03:40:40;;;;;;;4.82;3.50;;;3.90;99.90;;;2.71;100.00;97723.16;5029841;28;20522;-76
2023/02/21 03:43:06;;;;;;;6.97;3.70;;;3.90;99.90;;;2.71;100.00;97721.34;5029677;28;20407;-76
2023/02/21 03:45:32;;;;;;;8.00;3.70;;;4.00;99.90;;;2.72;100.00;97724.78;5030079;28;20478;-76
2023/02/21 03:47:58;;;;;;;6.03;3.75;;;3.90;99.90;;;2.73;100.00;97727.19;5030170;28;20481;-76
2023/02/21 03:50:24;;;;;;;6.50;3.60;;;4.00;99.90;;;2.77;100.00;97724.22;5029954;28;20872;-76
2023/02/21 03:52:51;;;;;;;6.40;3.47;;;4.00;99.90;;;2.73;100.00;97727.19;5029568;28;21019;-76
2023/02/21 03:55:19;;;;;;;5.90;3.53;;;3.90;99.90;;;2.76;100.00;97722.59;5030000;28;20399;-76
2023/02/21 03:57:45;;;;;;;5.78;3.70;;;4.00;99.90;;;2.75;100.00;97734.03;5029700;28;20415;-76
2023/02/21 04:00:13;;;;;;;7.90;3.95;;;4.00;99.90;;;2.73;100.00;97735.03;5029782;28;20415;-76
2023/02/21 04:02:39;;;;;;;6.88;3.75;;;4.00;99.90;;;2.73;100.00;97734.22;5029418;28;20440;-76
2023/02/21 04:05:06;;;;;;;5.83;3.70;;;4.00;99.90;;;2.70;100.00;97735.44;5029807;28;20476;-76
2023/02/21 04:07:32;;;;;;;6.90;3.75;;;3.90;99.90;;;2.66;100.00;97739.41;5029699;28;20501;-76
2023/02/21 04:09:58;;;;;;;6.90;3.85;;;3.90;99.90;;;2.64;100.00;97730.97;5032070;28;20490;-76
2023/02/21 04:12:25;;;;;;;10.10;4.40;;;3.80;99.90;;;2.63;100.00;97729.34;5033154;28;20848;-76
2023/02/21 04:14:51;;;;;;;6.73;3.90;;;3.80;99.90;;;2.60;100.00;97731.56;5033509;28;20980;-76
2023/02/21 04:17:17;;;;;;;7.13;3.72;;;3.80;99.90;;;2.58;100.00;97734.34;5033475;28;20417;-76
2023/02/21 04:19:43;;;;;;;7.83;4.07;;;3.80;99.90;;;2.57;100.00;97724.88;5033315;28;20423;-76
2023/02/21 04:22:09;;;;;;;7.20;4.28;;;3.80;99.90;;;2.57;100.00;97730.13;5032998;28;20456;-76
2023/02/21 04:24:35;;;;;;;5.53;3.65;;;3.80;99.90;;;2.54;100.00;97720.06;5033436;28;20747;-76
2023/02/21 04:27:01;;;;;;;4.53;3.88;;;3.80;99.90;;;2.55;100.00;97726.09;5033250;28;20403;-76
2023/02/21 04:29:28;;;;;;;7.35;4.13;;;3.80;99.90;;;2.55;100.00;97732.13;5033129;28;20498;-76
2023/02/21 04:31:54;;;;;;;6.60;3.42;;;3.80;99.90;;;2.56;100.00;97722.47;5032660;28;20414;-75
2023/02/21 04:34:20;;;;;;;6.57;3.70;;;3.80;99.90;;;2.54;100.00;97735.75;5033112;28;20874;-76
2023/02/21 04:36:46;;;;;;;7.28;3.85;;;3.80;99.90;;;2.57;100.00;97731.91;5033065;28;20457;-76
2023/02/21 04:39:13;;;;;;;6.07;3.70;;;3.80;99.90;;;2.59;100.00;97732.53;5032902;28;20415;-76
2023/02/21 04:41:39;;;;;;;6.90;3.70;;;3.80;99.90;;;2.56;100.00;97732.91;5032548;28;20552;-76
2023/02/21 04:44:05;;;;;;;5.80;3.95;;;3.80;99.90;;;2.53;100.00;97743.75;5031574;28;20411;-76
2023/02/21 04:46:33;;;;;;;6.28;3.80;;;3.70;99.90;;;2.51;100.00;97743.94;5032665;28;20414;-75
2023/02/21 04:48:59;;;;;;;5.47;3.60;;;3.70;99.90;;;2.51;100.00;97743.13;5032811;28;20403;-76
2023/02/21 04:51:26;;;;;;;11.05;4.25;;;3.70;99.90;;;2.50;100.00;97742.34;5032392;28;20422;-76
2023/02/21 04:53:54;;;;;;;7.07;3.72;;;3.70;99.90;;;2.48;100.00;97739.09;5032678;28;20402;-76
2023/02/21 04:56:22;;;;;;;7.95;4.25;;;3.70;99.90;;;2.50;100.00;97736.28;5032647;28;20515;-76
2023/02/21 04:58:48;;;;;;;6.97;4.20;;;3.70;99.90;;;2.42;100.00;97732.03;5032588;28;20423;-76
2023/02/21 05:01:16;;;;;;;8.25;5.10;;;3.70;99.90;;;2.44;100.00;97737.88;5033387;28;20403;-77
2023/02/21 05:03:44;;;;;;;10.30;4.38;;;3.70;99.90;;;2.38;100.00;97737.84;5033618;28;20468;-76
2023/02/21 05:06:15;;;;;;;10.13;4.10;;;3.60;99.90;;;2.37;100.00;97731.00;5032305;28;20559;-76
2023/02/21 05:08:41;;;;;;;6.18;4.50;;;3.60;99.90;;;2.37;100.00;97721.34;5037512;28;20400;-76
2023/02/21 05:11:07;;;;;;;8.25;3.90;;;3.60;99.90;;;2.37;100.00;97718.75;5043628;28;20487;-76
2023/02/21 05:13:33;;;;;;;6.93;3.80;;;3.60;99.90;;;2.32;100.00;97719.31;5067289;28;20429;-76
2023/02/21 05:15:59;;;;;;;5.13;4.00;;;3.60;99.90;;;2.31;100.00;97729.94;5052231;28;20905;-76
2023/02/21 05:18:27;;;;;;;8.27;4.70;;;3.60;99.90;;;2.30;100.00;97728.34;5052055;28;20405;-76
2023/02/21 05:20:55;;;;;;;6.82;4.47;;;3.60;99.90;;;2.32;100.00;97721.13;5050679;28;20781;-76
2023/02/21 05:23:34;;;;;;;9.43;4.50;;;3.50;99.90;;;2.29;100.00;97718.88;5051788;28;20450;-77
2023/02/21 05:26:00;;;;;;;9.80;4.18;;;3.50;99.90;;;2.24;100.00;97719.47;5052122;28;20469;-77
2023/02/21 05:28:27;;;;;;;8.15;4.47;;;3.40;99.90;;;2.20;100.00;97713.00;5051756;28;20917;-76
2023/02/21 05:30:53;;;;;;;8.70;4.28;;;3.40;99.90;;;2.17;100.00;97713.38;5051677;28;20408;-76
2023/02/21 05:33:19;;;;;;;10.00;4.60;;;3.40;99.90;;;2.17;100.00;97716.00;5049604;22;20446;-76
2023/02/21 05:35:48;;;;;;;7.85;4.55;;;3.40;99.90;;;2.18;100.00;97716.81;5020766;28;20498;-76
2023/02/21 05:38:16;;;;;;;8.30;4.22;;;3.40;99.90;;;2.18;100.00;97724.63;5022593;28;21047;-76
2023/02/21 05:40:41;;;;;;;11.13;4.40;;;3.40;99.90;;;2.21;100.00;97725.06;5019561;28;20470;-76
2023/02/21 05:43:10;;;;;;;6.60;4.25;;;3.40;99.90;;;2.18;100.00;97722.03;5018268;28;20508;-76
2023/02/21 05:45:36;;;;;;;9.57;4.38;;;3.40;99.90;;;2.15;100.00;97720.59;5013443;28;20442;-76
2023/02/21 05:48:03;;;;;;;6.88;4.63;;;3.40;99.90;;;2.15;100.00;97731.03;5020045;28;20408;-76
2023/02/21 05:50:30;;;;;;;7.68;4.28;;;3.40;99.90;;;2.07;100.00;97725.13;5021196;28;20403;-76
2023/02/21 05:52:56;;;;;;;6.32;3.97;;;3.30;99.90;;;2.06;100.00;97731.34;5026457;28;20498;-76
2023/02/21 05:55:24;;;;;;;9.23;4.90;;;3.30;99.90;;;2.06;100.00;97726.13;5015168;28;20934;-76
2023/02/21 05:57:50;;;;;;;7.65;4.03;;;3.30;99.90;;;2.06;100.00;97733.97;5026949;28;20409;-75
2023/02/21 06:00:18;;;;;;;8.57;4.03;;;3.30;99.90;;;2.09;100.00;97736.22;5019459;28;20449;-76
2023/02/21 06:02:44;;;;;;;6.78;4.20;;;3.30;99.90;;;2.07;100.00;97735.59;5018981;28;20475;-76
2023/02/21 06:05:09;;;;;;;7.05;3.95;;;3.30;99.90;;;2.09;100.00;97729.19;5026755;28;20439;-76
2023/02/21 06:07:35;;;;;;;5.93;3.97;;;3.30;99.90;;;2.08;100.00;97724.16;5011861;28;20519;-76
2023/02/21 06:10:02;;;;;;;7.80;4.20;;;3.30;99.90;;;2.05;100.00;97725.31;5015861;28;20395;-76
2023/02/21 06:12:29;;;;;;;12.18;4.30;;;3.30;99.90;;;2.09;100.00;97717.94;5011464;28;20409;-76
2023/02/21 06:14:55;;;;;;;12.25;4.10;;;3.30;99.90;;;2.10;100.00;97719.56;5013163;28;20446;-76
2023/02/21 06:17:21;;;;;;;7.72;4.40;;;3.30;99.90;;;2.09;100.00;97716.13;5026256;28;20407;-76
2023/02/21 06:19:47;;;;;;;9.68;4.05;;;3.30;99.90;;;2.13;100.00;97721.78;5014326;28;20567;-76
2023/02/21 06:22:14;;;;;;;6.97;4.60;;;3.40;99.90;;;2.15;100.00;97714.56;5023253;28;20413;-77
2023/02/21 06:24:40;;;;;;;6.65;4.07;;;3.40;99.90;;;2.16;100.00;97709.16;5020679;28;20406;-77
2023/02/21 06:27:06;;;;;;;6.47;4.38;;;3.40;99.90;;;2.17;100.00;97705.56;5017734;28;20404;-76
2023/02/21 06:29:33;;;;;;;7.97;4.60;;;3.40;99.90;;;2.19;100.00;97705.34;5025559;28;20454;-77
2023/02/21 06:32:05;;;;;;;6.90;4.40;;;3.40;99.90;;;2.23;100.00;97703.97;5013570;28;20414;-75
2023/02/21 06:34:31;;;;;;;7.43;4.80;;;3.50;99.90;;;2.26;100.00;97695.75;5008064;28;20454;-76
2023/02/21 06:36:57;;;;;;;8.13;4.68;;;3.50;99.90;;;2.29;100.00;97697.97;5012610;28;20775;-76
2023/02/21 06:39:23;;;;;;;7.25;4.78;;;3.50;99.90;;;2.31;100.00;97704.63;5012706;28;20474;-76
2023/02/21 06:41:49;;;;;;;7.30;4.60;;;3.50;99.90;;;2.33;100.00;97707.84;5014161;28;20408;-76
2023/02/21 06:44:15;;;;;;;7.50;4.30;;;3.50;99.90;;;2.34;100.00;97719.09;5012661;28;20405;-76
2023/02/21 06:46:43;;;;;;;11.43;5.00;;;3.60;99.90;;;2.35;100.00;97718.13;5013345;28;20492;-76
2023/02/21 06:49:09;;;;;;;8.23;4.88;;;3.60;99.90;;;2.32;100.00;97726.34;5029247;28;20444;-76
2023/02/21 06:51:39;;;;;;;8.98;4.55;;;3.50;99.90;;;2.30;100.00;97725.72;5030137;28;20418;-76
2023/02/21 06:54:06;;;;;;;9.98;5.00;;;3.50;99.90;;;2.30;100.00;97734.38;5030394;28;20440;-76
2023/02/21 06:56:33;;;;;;;10.32;4.70;;;3.50;99.90;;;2.29;100.00;97732.75;5030585;28;20768;-76
2023/02/21 06:58:59;;;;;;;9.05;4.70;;;3.50;99.90;;;2.28;100.00;97736.34;5030509;28;20427;-76
2023/02/21 07:01:29;;;;;;;15.32;5.07;;;3.50;99.90;;;2.26;100.00;97735.72;5030219;28;20457;-77
2023/02/21 07:03:57;;;;;;;11.07;4.78;;;3.40;99.90;;;2.27;100.00;97733.94;5030404;28;20440;-77
2023/02/21 07:06:24;;;;;;;8.95;4.88;;;3.50;99.90;;;2.27;100.00;97739.97;5028433;28;20897;-77
2023/02/21 07:08:50;;;;;;;7.75;5.10;;;3.50;99.90;;;2.30;100.00;97736.16;5010181;28;20413;-77
2023/02/21 07:11:17;;;;;;;10.55;4.80;;;3.50;99.90;;;2.34;100.00;97738.19;5008910;28;20582;-76
2023/02/21 07:13:48;;;;;;;7.22;4.88;;;3.50;99.90;;;2.36;100.00;97737.22;5017358;28;20448;-77
2023/02/21 07:16:16;;;;;;;10.50;5.10;;;3.60;99.90;;;2.38;100.00;97746.47;5014163;28;20512;-77
2023/02/21 07:18:42;;;;;;;9.32;4.80;;;3.60;99.90;;;2.42;100.00;97736.44;5021512;28;20455;-76
2023/02/21 07:21:10;;;;;;;8.43;5.18;;;3.60;99.90;;;2.47;100.00;97736.69;5012538;28;20884;-76
2023/02/21 07:23:36;;;;;;;9.38;5.50;;;3.70;99.90;;;2.50;100.00;97731.88;5015039;28;20412;-76
2023/02/21 07:26:02;;;;;;;9.93;5.60;;;3.70;99.90;;;2.54;100.00;97727.09;5012181;28;20414;-76
2023/02/21 07:28:28;;;;;;;10.23;5.67;;;3.70;99.90;;;2.53;100.00;97726.28;5013085;28;20435;-77
2023/02/21 07:30:54;;;;;;;9.85;5.45;;;3.70;99.90;;;2.57;100.00;97726.69;5012171;28;20779;-76
2023/02/21 07:33:20;;;;;;;10.02;5.60;;;3.70;99.90;;;2.63;100.00;97731.19;5011460;28;20439;-76
2023/02/21 07:35:46;;;;;;;11.40;5.82;;;3.80;99.90;;;2.69;100.00;97731.22;5015797;28;20422;-76
2023/02/21 07:38:20;;;;;;;11.80;6.00;;;3.90;99.90;;;2.76;100.00;97727.81;5019836;28;20505;-76
2023/02/21 07:40:46;;;;;;;12.43;6.13;;;3.90;99.90;;;2.82;100.00;97729.66;5009996;28;20461;-77
2023/02/21 07:43:12;;;;;;;12.75;6.03;;;4.00;99.90;;;2.90;100.00;97732.13;5021090;28;20795;-77
2023/02/21 07:45:38;;;;;;;9.82;5.78;;;4.00;99.90;;;3.01;100.00;97728.94;5016605;28;20595;-77
2023/02/21 07:48:04;;;;;;;12.70;5.72;;;4.20;99.90;;;3.11;100.00;97727.59;5026716;28;20570;-76
2023/02/21 07:50:30;;;;;;;8.68;5.45;;;4.20;99.90;;;3.23;100.00;97719.19;5021430;28;20519;-76
2023/02/21 07:52:58;;;;;;;10.80;5.90;;;4.40;99.90;;;3.32;100.00;97726.66;5013468;28;20913;-76
2023/02/21 07:55:26;;;;;;;9.18;5.60;;;4.40;99.90;;;3.42;100.00;97721.03;5026830;28;20407;-76
2023/02/21 07:57:52;;;;;;;10.75;6.10;;;4.50;99.90;;;3.55;100.00;97723.69;5017132;28;20439;-77
2023/02/21 08:00:19;;;;;;;12.35;6.50;;;4.60;99.90;;;3.62;100.00;97731.56;5026165;28;20428;-76
2023/02/21 08:02:49;;;;;;;11.05;5.82;;;4.70;99.90;;;3.67;100.00;97723.94;5015174;28;20782;-76
2023/02/21 08:05:16;;;;;;;9.30;5.63;;;4.80;99.90;;;3.86;100.00;97720.53;5011434;28;20431;-75
2023/02/21 08:07:43;;;;;;;8.85;5.63;;;4.90;99.90;;;4.01;100.00;97726.38;5015167;28;20504;-73
2023/02/21 08:10:09;;;;;;;13.18;6.05;;;5.10;99.90;;;4.04;100.00;97728.59;5016368;28;21373;-75
2023/02/21 08:12:36;;;;;;;9.33;5.00;;;5.10;99.90;;;4.20;100.00;97728.22;5010691;28;20779;-75
2023/02/21 08:15:03;;;;;;;12.25;5.80;;;5.30;99.90;;;4.27;100.00;97730.81;5013449;28;20408;-74
2023/02/21 08:17:29;;;;;;;9.75;5.43;;;5.30;99.90;;;4.40;100.00;97736.06;5013591;28;20401;-75
2023/02/21 08:19:55;;;;;;;11.02;5.75;;;5.50;99.90;;;4.56;100.00;97733.00;5013531;28;20949;-75
2023/02/21 08:22:21;;;;;;;8.80;5.35;;;5.60;99.90;;;4.71;100.00;97730.16;5024832;28;20437;-79
2023/02/21 08:24:48;;;;;;;8.35;5.28;;;5.70;99.90;;;4.83;100.00;97735.56;5016040;28;20446;-79
2023/02/21 08:27:14;;;;;;;15.20;7.00;;;5.90;99.90;;;4.91;100.00;97730.09;5012186;28;20439;-78
2023/02/21 08:29:42;;;;;;;11.95;6.25;;;6.00;99.90;;;5.05;100.00;97740.34;5014043;28;20436;-78
2023/02/21 08:32:08;;;;;;;11.05;6.32;;;6.00;99.90;;;5.23;100.00;97742.31;5019324;28;20448;-78
2023/02/21 08:34:34;;;;;;;9.07;6.47;;;6.20;99.90;;;5.38;100.00;97739.41;5014992;28;20405;-78
2023/02/21 08:37:00;;;;;;;15.13;6.90;;;6.40;99.90;;;5.43;100.00;97740.41;5017735;28;20412;-79
2023/02/21 08:39:28;;;;;;;12.10;6.95;;;6.50;99.90;;;5.54;100.00;97743.38;5017449;28;20508;-78
2023/02/21 08:41:55;;;;;;;13.52;6.47;;;6.50;99.90;;;5.61;100.00;97742.34;5018875;28;20862;-79
2023/02/21 08:44:21;;;;;;;12.77;6.95;;;6.60;99.90;;;5.70;100.00;97743.69;5013532;28;20420;-80
2023/02/21 08:46:49;;;;;;;16.98;7.10;;;6.70;99.90;;;5.83;100.00;97745.44;5016762;28;20411;-78
2023/02/21 08:49:15;;;;;;;13.18;6.95;;;6.80;99.90;;;5.91;100.00;97741.78;5016279;28;20471;-79
2023/02/21 08:51:41;;;;;;;15.93;7.68;;;6.90;99.90;;;5.95;100.00;97740.31;5011525;28;20500;-79
2023/02/21 08:54:07;;;;;;;15.77;7.05;;;6.90;99.90;;;6.08;100.00;97743.69;5012359;28;20492;-79
2023/02/21 08:56:33;;;;;;;16.38;7.53;;;7.00;99.90;;;6.18;100.00;97741.38;5012632;28;20397;-78
2023/02/21 08:59:02;;;;;;;16.77;7.60;;;7.20;99.90;;;6.27;100.00;97744.53;5010609;28;20418;-78
2023/02/21 09:01:32;;;;;;;15.50;7.37;;;7.30;99.90;;;6.38;100.00;97737.78;5011725;28;20977;-76
2023/02/21 09:04:01;;;;;;;19.52;7.80;;;7.30;99.90;;;6.48;100.00;97744.16;5012435;28;20396;-76
2023/02/21 09:06:27;;;;;;;10.77;6.90;;;7.50;99.90;;;6.61;100.00;97738.00;5011301;28;20405;-76
2023/02/21 09:08:53;;;;;;;13.23;7.03;;;7.50;99.90;;;6.68;100.00;97735.28;5012315;28;20427;-76
2023/02/21 09:11:19;;;;;;;13.40;6.57;;;7.60;99.90;;;6.77;100.00;97740.03;5012626;28;20425;-75
2023/02/21 09:13:45;;;;;;;15.40;7.07;;;7.70;99.90;;;6.81;100.00;97737.78;5012353;28;20404;-76
2023/02/21 09:16:10;;;;;;;14.70;7.53;;;7.70;99.90;;;6.92;100.00;97729.94;5012503;28;21060;-75
2023/02/21 09:18:36;;;;;;;22.92;7.25;;;7.80;99.90;;;7.01;100.00;97730.47;5012517;28;20404;-75
2023/02/21 09:21:07;;;;;;;18.52;7.10;;;7.90;99.90;;;7.14;100.00;97732.94;5006735;28;20911;-77
2023/02/21 09:23:33;;;;;;;21.25;8.10;;;8.00;99.90;;;7.17;100.00;97735.16;5010135;28;20466;-77
2023/02/21 09:25:59;;;;;;;18.58;7.00;;;8.10;99.90;;;7.26;100.00;97735.66;5008773;28;20801;-77
2023/02/21 09:28:25;;;;;;;15.50;7.03;;;8.10;99.90;;;7.39;100.00;97735.50;5012117;28;20412;-77
2023/02/21 09:30:51;;;;;;;21.48;7.25;;;8.30;99.90;;;7.49;100.00;97729.69;5012254;28;20411;-77
2023/02/21 09:33:17;;;;;;;13.05;6.65;;;8.40;99.90;;;7.69;100.00;97735.50;5006291;28;20432;-76
2023/02/21 09:35:43;;;;;;;16.77;7.03;;;8.50;99.90;;;7.76;100.00;97731.75;5012238;28;20436;-76
2023/02/21 09:38:10;;;;;;;14.80;7.45;;;8.60;99.90;;;7.92;100.00;97738.22;5019713;28;20442;-76
2023/02/21 09:40:42;;;;;;;17.17;8.00;;;8.70;99.90;;;8.05;100.00;97738.00;5024853;28;20429;-76
2023/02/21 09:43:14;;;;;;;16.33;8.05;;;8.90;99.90;;;8.13;100.00;97735.03;5013861;28;20393;-76
2023/02/21 09:45:42;;;;;;;15.68;7.28;;;9.00;99.90;;;8.18;100.00;97731.75;5012048;28;20401;-76
2023/02/21 09:48:14;;;;;;;15.77;7.00;;;9.00;99.90;;;8.24;100.00;97730.03;5011971;28;20782;-76
2023/02/21 09:50:45;;;;;;;16.42;7.53;;;9.10;99.90;;;8.28;100.00;97736.44;5011957;28;20397;-76
2023/02/21 09:53:18;;;;;;;14.93;7.20;;;9.10;99.90;;;8.41;100.00;97731.00;5011550;28;20899;-76
2023/02/21 09:55:45;;;;;;;14.73;6.60;;;9.20;99.90;;;8.62;100.00;97733.06;5011856;28;20498;-76
2023/02/21 09:58:13;;;;;;;13.10;6.70;;;9.40;99.90;;;8.87;100.00;97735.47;5011799;28;20405;-76
2023/02/21 10:00:40;;;;;;;13.03;6.57;;;9.60;99.90;;;9.22;100.00;97730.94;5011680;28;20507;-76
2023/02/21 10:03:31;;;;;;;16.17;6.65;;;10.00;99.90;;;9.81;100.00;97723.59;5010694;28;20405;-74
2023/02/21 10:06:06;;;;;;;20.55;6.65;;;10.60;99.90;;;10.36;100.00;97726.41;5011579;28;20495;-74
2023/02/21 10:08:43;;;;;;;17.30;6.28;;;11.30;99.90;;;10.92;100.00;97729.03;5011202;28;20467;-73
2023/02/21 10:11:27;;;;;;;17.30;6.07;;;12.00;99.90;;;11.67;100.00;97720.41;5011411;28;20405;-74
2023/02/21 10:14:08;;;;;;;11.20;5.28;;;12.70;99.90;;;12.07;100.00;97715.53;5010145;28;20959;-75
2023/02/21 10:16:45;;;;;;;12.02;4.60;;;13.10;99.90;;;12.59;100.00;97712.22;5011662;28;20894;-75
2023/02/21 10:19:17;;;;;;;11.02;4.90;;;13.50;99.90;;;12.99;100.00;97707.16;5011182;28;20401;-74
2023/02/21 10:21:46;;;;;;;8.65;4.13;;;13.80;99.90;;;13.60;100.00;97703.97;5009674;28;20752;-74
2023/02/21 10:24:19;;;;;;;12.60;4.13;;;14.30;99.90;;;14.14;100.00;97707.75;5011252;28;20483;-74
2023/02/21 10:26:54;;;;;;;9.70;4.07;;;14.70;99.90;;;14.69;100.00;97706.16;5011248;28;20491;-74
2023/02/21 10:29:24;;;;;;;8.35;3.15;;;15.30;99.90;;;15.31;100.00;97703.03;5011366;28;20401;-75
2023/02/21 10:31:56;;;;;;;13.10;4.43;;;16.00;99.90;;;15.65;100.00;97705.03;5011229;28;20403;-75
2023/02/21 10:34:26;;;;;;;11.07;4.20;;;16.60;99.90;;;16.09;100.00;97700.47;5011231;28;20462;-75
2023/02/21 10:36:54;;;;;;;14.80;4.20;;;17.00;99.90;;;16.67;100.00;97703.22;5010979;28;20405;-76
2023/02/21 10:39:29;;;;;;;13.73;3.63;;;17.60;99.90;;;17.37;100.00;97700.84;5010995;28;20996;-75
2023/02/21 10:41:56;;;;;;;12.25;3.80;;;18.30;99.90;;;17.95;100.00;97706.78;5010151;28;20471;-76
2023/02/21 10:44:30;;;;;;;17.42;3.63;;;19.00;95.30;;;18.68;100.00;97710.72;5010614;28;20901;-76
2023/02/21 10:47:01;;;;;;;10.30;3.42;;;19.60;95.00;;;19.22;99.16;97705.41;5006192;28;20879;-76
2023/02/21 10:49:34;;;;;;;9.13;3.20;;;20.20;94.00;;;19.61;97.07;97701.44;5016045;28;20404;-77
2023/02/21 10:52:11;;;;;;;8.38;2.80;;;20.60;92.80;;;20.05;98.21;97695.34;5010701;28;20468;-80
2023/02/21 10:54:39;;;;;;;9.82;3.22;;;21.00;92.90;;;20.33;98.81;97693.31;5011015;28;20416;-73
2023/02/21 10:57:09;;;;;;;6.47;2.90;;;21.30;92.70;;;20.60;98.98;97689.72;5010814;28;20755;-70
2023/02/21 10:59:41;;;;;;;8.77;3.75;;;21.40;92.50;;;20.58;94.39;97690.03;5010555;28;20478;-74
2023/02/21 11:02:29;;;;;;;9.60;2.83;;;21.50;91.30;;;20.35;97.41;97675.81;5010370;28;20412;-74
2023/02/21 11:05:06;;;;;;;8.23;3.25;;;21.30;91.70;;;20.20;93.53;97683.44;5010477;28;20404;-74
2023/02/21 11:07:33;;;;;;;6.32;2.72;;;21.00;90.60;;;20.31;95.78;97672.09;5010536;28;20548;-77
2023/02/21 11:10:00;;;;;;;10.60;3.28;;;21.00;91.40;;;20.23;93.91;97672.84;5010262;28;20404;-72
2023/02/21 11:12:30;;;;;;;7.85;3.05;;;20.90;90.70;;;20.35;93.80;97670.44;5009338;28;20411;-74
2023/02/21 11:15:17;;;;;;;6.78;2.90;;;21.00;90.80;;;20.64;93.88;97671.84;5010682;28;20487;-75
2023/02/21 11:17:44;;;;;;;9.20;2.80;;;21.20;90.80;;;20.68;91.28;97668.22;5010688;28;20445;-74
2023/02/21 11:20:18;;;;;;;10.77;3.78;;;21.40;90.00;;;20.64;69.03;97666.47;5010893;28;20413;-75
2023/02/21 11:22:47;;;;;;;8.60;3.47;;;21.30;73.60;;;21.01;80.71;97670.59;5010355;28;20817;-74
2023/02/21 11:25:22;;;;;;;9.68;3.40;;;21.80;82.20;;;21.58;76.41;97661.41;5010496;28;20894;-74
2023/02/21 11:28:05;;;;;;;6.97;3.77;;;22.20;78.30;;;22.02;73.88;97659.56;5011211;28;20412;-76
2023/02/21 11:30:36;;;;;;;6.10;2.97;;;22.60;77.00;;;22.46;75.52;97653.00;5010676;28;20423;-75
2023/02/21 11:33:04;;;;;;;13.32;4.22;;;23.20;78.60;;;22.72;74.65;97645.59;5029515;22;20972;-74
2023/02/21 11:35:34;;;;;;;9.40;3.40;;;23.50;77.70;;;23.00;70.46;97639.81;5029685;28;20464;-74
2023/02/21 11:38:03;;;;;;;8.13;3.63;;;23.80;74.30;;;23.51;63.44;97631.44;5027258;28;20405;-74
2023/02/21 11:40:43;;;;;;;8.38;3.58;;;24.30;67.80;;;23.70;61.56;97630.16;5010017;28;20427;-74
2023/02/21 11:43:20;;;;;;;13.48;3.83;;;24.60;66.10;;;23.85;57.49;97626.88;5009969;28;20408;-75
2023/02/21 11:46:08;;;;;;;6.75;3.20;;;24.80;60.40;;;23.78;65.29;97619.28;5010429;28;20415;-75
2023/02/21 11:48:41;;;;;;;8.15;3.08;;;24.90;68.70;;;23.74;69.94;97621.09;5010265;28;20397;-74
2023/02/21 11:51:25;;;;;;;7.32;2.95;;;24.90;72.30;;;23.79;72.33;97615.47;5010213;28;20396;-75
2023/02/21 11:53:52;;;;;;;7.68;3.45;;;24.90;73.60;;;23.74;74.16;97612.97;5010287;28;20492;-75
2023/02/21 11:56:36;;;;;;;12.10;3.47;;;24.80;74.60;;;23.67;75.73;97604.59;5010044;28;20459;-76
2023/02/21 11:59:16;;;;;;;3.72;2.53;;;24.80;75.50;;;23.67;75.05;97599.22;5009670;28;20401;-75
2023/02/21 12:01:53;;;;;;;7.68;3.20;;;24.80;75.20;;;23.74;67.10;97591.34;5009591;28;20886;-75
2023/02/21 12:04:54;;;;;;;7.15;3.03;;;24.80;70.70;;;23.28;72.31;97584.22;5009834;28;20879;-76
2023/02/21 12:07:34;;;;;;;10.40;3.70;;;24.40;72.90;;;23.08;76.42;97580.34;4999413;28;20525;-76
2023/02/21 12:10:14;;;;;;;6.90;3.20;;;24.20;75.30;;;22.93;77.04;97572.03;5009860;28;20412;-76
2023/02/21 12:12:51;;;;;;;7.70;2.92;;;23.90;77.40;;;22.74;68.36;97572.44;5009188;28;20454;-76
2023/02/21 12:15:23;;;;;;;7.43;3.10;;;23.50;71.20;;;22.36;78.35;97569.72;5008304;28;20556;-76
2023/02/21 12:18:24;;;;;;;7.50;3.30;;;23.20;77.60;;;22.07;82.88;97556.97;5009706;28;20454;-76
2023/02/21 12:21:09;;;;;;;7.82;2.80;;;22.80;80.40;;;21.63;87.59;97552.72;5009057;28;20409;-76
2023/02/21 12:23:46;;;;;;;5.45;2.83;;;22.40;81.10;;;21.28;91.28;97549.22;5008330;28;20397;-75
2023/02/21 12:26:30;;;;;;;5.47;2.95;;;22.10;83.30;;;20.84;97.66;97540.25;5008115;28;20392;-75
2023/02/21 12:29:12;;;;;;;8.15;3.22;;;21.70;85.70;;;20.31;100.00;97526.94;5008532;28;20496;-76
2023/02/21 12:31:57;;;;;;;7.07;3.63;;;21.10;86.10;;;19.76;100.00;97531.09;5011615;28;20407;-76
2023/02/21 12:34:42;;;;;;;10.85;3.60;;;20.60;88.30;;;19.18;83.01;97529.16;5013057;28;20404;-75
2023/02/21 12:37:24;;;;;;;7.03;2.50;;;20.00;75.90;;;18.79;100.00;97530.56;5013203;28;20814;-75
2023/02/21 12:40:17;;;;;;;5.87;2.67;;;19.60;89.20;;;18.52;100.00;97517.94;5011600;28;20499;-76
2023/02/21 12:43:07;;;;;;;4.30;2.63;;;19.30;91.50;;;18.25;100.00;97522.50;5012849;28;20910;-75
2023/02/21 12:45:53;;;;;;;4.35;2.75;;;19.00;91.80;;;18.15;100.00;97516.22;5013064;28;20400;-75
2023/02/21 12:48:30;;;;;;;5.35;3.00;;;18.90;91.60;;;17.93;100.00;97516.09;5012992;28;20413;-76
2023/02/21 12:51:03;;;;;;;4.73;2.53;;;18.70;90.10;;;17.95;100.00;97511.25;5012961;28;20428;-76